Time;durP1;ratioP1;P1;durP2;ratioP2;P2;SDS_P1;SDS_P2;PMS_P1;PMS_P2;Temp;Humidity;BMP_temperature;BMP_pressure;BME280_temperature;BME280_humidity;BME280_pressure;Samples;Min_cycle;Max_cycle;Signal;HPM_P1;HPM_P2
2022/01/04 00:00:12;;;;;;;1.80;0.40;;;20.90;51.00;;;;;;5033195;28;20072;-83
2022/01/04 00:02:37;;;;;;;1.55;0.40;;;20.90;51.10;;;;;;5033301;28;20037;-82
2022/01/04 00:05:04;;;;;;;1.88;0.40;;;21.30;51.30;;;;;;5032442;28;20106;-82
2022/01/04 00:07:30;;;;;;;1.55;0.38;;;20.80;51.00;;;;;;5032925;28;20052;-83
2022/01/04 00:09:56;;;;;;;1.65;0.40;;;20.80;51.00;;;;;;5016328;28;20408;-83
2022/01/04 00:15:06;;;;;;;2.72;0.55;;;21.90;51.70;;;;;;5032872;28;20124;-83
2022/01/04 00:17:32;;;;;;;1.65;0.32;;;21.90;51.90;;;;;;5032388;28;20055;-83
2022/01/04 00:19:57;;;;;;;2.33;0.65;;;20.80;51.10;;;;;;5014315;28;20412;-83
2022/01/04 00:22:23;;;;;;;2.42;0.32;;;20.80;51.10;;;;;;5030768;28;20080;-83
2022/01/04 00:24:48;;;;;;;1.33;0.32;;;20.80;51.10;;;;;;5031019;28;20045;-83
2022/01/04 00:27:14;;;;;;;1.60;0.30;;;20.80;51.10;;;;;;5031115;28;20496;-83
2022/01/04 00:29:40;;;;;;;1.23;0.30;;;20.80;51.20;;;;;;5030986;28;20447;-83
2022/01/04 00:32:08;;;;;;;1.27;0.45;;;20.80;51.20;;;;;;5031270;28;20049;-83
2022/01/04 00:34:33;;;;;;;1.00;0.25;;;20.70;51.10;;;;;;5031182;28;20076;-83
2022/01/04 00:36:59;;;;;;;2.13;0.55;;;20.70;51.10;;;;;;5031888;28;20369;-83
2022/01/04 00:39:24;;;;;;;1.10;0.30;;;20.70;51.20;;;;;;5031029;28;20056;-83
2022/01/04 00:41:50;;;;;;;2.03;0.40;;;20.70;51.20;;;;;;5031436;28;20047;-83
2022/01/04 00:44:15;;;;;;;1.20;0.40;;;20.70;51.20;;;;;;5031076;28;20393;-83
2022/01/04 00:46:41;;;;;;;1.73;0.40;;;20.70;51.20;;;;;;5030456;28;20381;-83
2022/01/04 00:49:10;;;;;;;1.25;0.30;;;20.70;51.20;;;;;;5015814;28;20059;-83
2022/01/04 00:51:40;;;;;;;1.08;0.30;;;20.60;51.10;;;;;;5032464;28;20052;-83
2022/01/04 00:54:06;;;;;;;1.48;0.40;;;20.60;51.10;;;;;;5030788;28;20045;-83
2022/01/04 00:56:32;;;;;;;1.05;0.32;;;21.30;51.50;;;;;;5031395;28;20385;-83
2022/01/04 00:58:57;;;;;;;1.98;0.40;;;20.60;51.20;;;;;;5031546;28;20040;-83
2022/01/04 01:01:23;;;;;;;1.75;0.32;;;20.80;51.30;;;;;;5030746;28;20099;-83
2022/01/04 01:03:48;;;;;;;1.40;0.40;;;20.60;51.20;;;;;;5031564;28;20041;-83
2022/01/04 01:06:14;;;;;;;1.33;0.30;;;20.60;51.20;;;;;;5031708;28;20143;-83
2022/01/04 01:08:40;;;;;;;1.60;0.38;;;20.60;51.20;;;;;;5031276;28;20047;-83
2022/01/04 01:11:07;;;;;;;1.00;0.30;;;20.60;51.20;;;;;;5031890;28;20102;-83
2022/01/04 01:13:33;;;;;;;1.25;0.40;;;20.90;51.40;;;;;;5031263;28;20045;-83
2022/01/04 01:15:58;;;;;;;2.97;0.52;;;20.50;51.20;;;;;;5031094;28;20408;-83
2022/01/04 01:18:24;;;;;;;1.30;0.50;;;20.70;51.30;;;;;;5031598;28;20048;-82
2022/01/04 01:20:49;;;;;;;1.50;0.40;;;20.50;51.20;;;;;;5030721;28;20055;-83
2022/01/04 01:23:15;;;;;;;2.22;0.60;;;21.80;51.90;;;;;;5031618;28;20036;-83
2022/01/04 01:25:41;;;;;;;1.27;0.43;;;20.50;51.20;;;;;;5031666;28;20098;-83
2022/01/04 01:28:06;;;;;;;1.08;0.32;;;20.50;51.20;;;;;;5030566;28;20053;-83
2022/01/04 01:30:35;;;;;;;1.40;0.40;;;20.50;51.20;;;;;;5031394;28;20660;-83
2022/01/04 01:33:01;;;;;;;1.42;0.40;;;20.50;51.20;;;;;;5031572;28;20048;-83
2022/01/04 01:35:26;;;;;;;1.70;0.40;;;20.50;51.30;;;;;;5030813;28;20127;-83
2022/01/04 01:37:52;;;;;;;1.30;0.30;;;20.50;51.30;;;;;;5031337;28;20095;-82
2022/01/04 01:40:17;;;;;;;1.58;0.40;;;20.50;51.30;;;;;;5031008;28;20513;-83
2022/01/04 01:42:43;;;;;;;2.47;0.50;;;20.50;51.30;;;;;;5030695;28;20053;-82
2022/01/04 01:45:09;;;;;;;1.27;0.43;;;20.50;51.30;;;;;;5031364;28;20048;-82
2022/01/04 01:47:38;;;;;;;1.38;0.30;;;20.40;51.30;;;;;;5031419;28;20076;-82
2022/01/04 01:50:04;;;;;;;1.35;0.30;;;20.50;51.40;;;;;;5030386;28;20518;-82
2022/01/04 01:52:30;;;;;;;0.75;0.32;;;20.40;51.30;;;;;;5031144;28;20040;-83
2022/01/04 01:54:56;;;;;;;1.38;0.50;;;20.40;51.30;;;;;;4998580;28;20045;-83
2022/01/04 01:57:22;;;;;;;2.15;0.47;;;20.40;51.30;;;;;;5034065;28;20041;-83
2022/01/04 01:59:48;;;;;;;2.22;0.30;;;20.40;51.30;;;;;;5035112;28;20045;-83
2022/01/04 02:02:13;;;;;;;1.77;0.40;;;20.40;51.30;;;;;;5035365;28;20057;-83
2022/01/04 02:04:39;;;;;;;1.30;0.40;;;20.40;51.30;;;;;;5034880;28;20048;-82
2022/01/04 02:07:05;;;;;;;1.23;0.40;;;20.40;51.30;;;;;;5018560;28;20712;-82
2022/01/04 02:09:31;;;;;;;0.68;0.30;;;21.00;51.70;;;;;;5019004;28;20370;-83
2022/01/04 02:11:57;;;;;;;1.85;0.47;;;20.40;51.30;;;;;;5025666;28;20501;-83
2022/01/04 02:14:24;;;;;;;1.77;0.40;;;20.40;51.40;;;;;;4999239;28;20049;-83
2022/01/04 02:16:49;;;;;;;1.17;0.30;;;20.30;51.30;;;;;;5015102;28;20045;-83
2022/01/04 02:19:16;;;;;;;1.02;0.35;;;21.80;52.20;;;;;;5014737;28;20053;-83
2022/01/04 02:21:42;;;;;;;1.48;0.32;;;20.30;51.30;;;;;;5014808;28;20049;-83
2022/01/04 02:24:08;;;;;;;2.08;0.50;;;20.20;51.30;;;;;;5014363;28;20103;-83
2022/01/04 02:26:33;;;;;;;0.93;0.40;;;20.30;51.30;;;;;;5015012;28;20045;-83
2022/01/04 02:28:59;;;;;;;0.95;0.35;;;20.30;51.40;;;;;;5014650;28;20051;-83
2022/01/04 02:31:25;;;;;;;1.92;0.60;;;20.30;51.40;;;;;;5014078;28;20054;-83
2022/01/04 02:33:50;;;;;;;1.15;0.50;;;20.30;51.40;;;;;;5015260;28;20049;-83
2022/01/04 02:36:16;;;;;;;1.02;0.40;;;20.30;51.40;;;;;;5014921;28;20588;-83
2022/01/04 02:38:41;;;;;;;1.55;0.30;;;20.30;51.40;;;;;;5014147;28;20416;-83
2022/01/04 02:41:07;;;;;;;0.77;0.30;;;20.30;51.40;;;;;;5014770;28;20037;-83
2022/01/04 02:43:32;;;;;;;0.80;0.30;;;20.20;51.40;;;;;;5014896;28;20103;-83
2022/01/04 02:45:58;;;;;;;0.75;0.30;;;20.30;51.40;;;;;;5014099;28;20045;-83
2022/01/04 02:48:24;;;;;;;0.85;0.32;;;20.30;51.40;;;;;;5014731;28;20124;-83
2022/01/04 02:50:50;;;;;;;1.73;0.40;;;21.30;52.00;;;;;;5004530;28;20060;-83
2022/01/04 02:53:16;;;;;;;0.98;0.40;;;20.30;51.40;;;;;;5013843;28;20136;-83
2022/01/04 02:55:42;;;;;;;1.48;0.50;;;20.20;51.40;;;;;;5014340;28;20099;-83
2022/01/04 02:58:07;;;;;;;2.05;0.40;;;21.10;51.90;;;;;;5014074;28;20045;-83
2022/01/04 03:00:33;;;;;;;0.80;0.30;;;20.20;51.40;;;;;;5013571;28;20140;-82
2022/01/04 03:02:59;;;;;;;0.75;0.20;;;20.20;51.40;;;;;;5014356;28;20046;-83
2022/01/04 03:05:24;;;;;;;1.15;0.40;;;20.20;51.50;;;;;;5014597;28;20144;-83
2022/01/04 03:07:50;;;;;;;1.50;0.40;;;20.80;51.80;;;;;;5012406;28;20046;-83
2022/01/04 03:10:15;;;;;;;1.90;0.50;;;20.20;51.50;;;;;;5014009;28;20045;-82
2022/01/04 03:12:45;;;;;;;0.75;0.30;;;20.20;51.50;;;;;;5014432;28;20068;-83
2022/01/04 03:15:11;;;;;;;1.45;0.38;;;20.20;51.50;;;;;;5013682;28;20068;-83
2022/01/04 03:17:37;;;;;;;1.00;0.40;;;20.10;51.40;;;;;;5014058;28;20158;-83
2022/01/04 03:20:03;;;;;;;1.58;0.32;;;20.10;51.40;;;;;;5014112;28;20103;-83
2022/01/04 03:22:29;;;;;;;1.20;0.30;;;20.10;51.40;;;;;;5013693;28;20054;-83
2022/01/04 03:24:54;;;;;;;1.52;0.57;;;20.10;51.40;;;;;;4987778;28;20046;-83
2022/01/04 03:27:20;;;;;;;1.15;0.40;;;20.10;51.50;;;;;;4993639;28;20061;-83
2022/01/04 03:29:45;;;;;;;0.68;0.32;;;20.10;51.40;;;;;;4993989;28;20143;-83
2022/01/04 03:32:11;;;;;;;1.10;0.30;;;20.10;51.50;;;;;;4994883;28;20449;-83
2022/01/04 03:34:36;;;;;;;1.38;0.40;;;20.10;51.50;;;;;;5013284;28;20160;-83
2022/01/04 03:37:02;;;;;;;0.98;0.30;;;20.10;51.50;;;;;;5012477;28;20080;-82
2022/01/04 03:39:28;;;;;;;1.55;0.52;;;20.10;51.50;;;;;;5013483;28;20099;-83
2022/01/04 03:41:53;;;;;;;1.70;0.50;;;20.10;51.50;;;;;;5012969;28;20045;-83
2022/01/04 03:44:20;;;;;;;1.48;0.50;;;20.10;51.50;;;;;;5013519;28;20114;-83
2022/01/04 03:46:49;;;;;;;1.05;0.60;;;20.10;51.50;;;;;;5013627;28;20050;-83
2022/01/04 03:49:15;;;;;;;1.05;0.40;;;20.00;51.50;;;;;;5012863;28;20050;-83
2022/01/04 03:51:41;;;;;;;1.33;0.32;;;20.10;51.50;;;;;;5013400;28;20413;-83
2022/01/04 03:54:06;;;;;;;0.63;0.20;;;20.00;51.50;;;;;;5013814;28;20061;-83
2022/01/04 03:56:32;;;;;;;1.25;0.32;;;20.10;51.50;;;;;;4996033;28;20053;-83
2022/01/04 03:58:57;;;;;;;0.93;0.40;;;20.00;51.50;;;;;;4993705;28;20133;-83
2022/01/04 04:01:23;;;;;;;0.63;0.32;;;20.00;51.50;;;;;;4993839;28;20085;-83
2022/01/04 04:03:48;;;;;;;0.73;0.35;;;20.00;51.50;;;;;;4992867;28;20046;-83
2022/01/04 04:06:14;;;;;;;1.35;0.40;;;20.00;51.50;;;;;;4993489;28;20101;-83
2022/01/04 04:08:39;;;;;;;0.68;0.30;;;20.00;51.60;;;;;;4993541;28;20057;-83
2022/01/04 04:11:05;;;;;;;1.67;0.40;;;20.00;51.50;;;;;;4992773;28;20038;-83
2022/01/04 04:13:31;;;;;;;1.25;0.40;;;20.00;51.50;;;;;;4993504;28;20053;-83
2022/01/04 04:15:56;;;;;;;1.95;0.35;;;20.00;51.60;;;;;;4993711;28;20059;-83
2022/01/04 04:18:22;;;;;;;0.82;0.30;;;20.80;52.00;;;;;;4980616;28;20084;-83
2022/01/04 04:20:47;;;;;;;1.70;0.40;;;20.00;51.60;;;;;;4997148;28;20058;-83
2022/01/04 04:23:13;;;;;;;1.50;0.40;;;20.00;51.60;;;;;;4993370;28;20401;-83
2022/01/04 04:25:39;;;;;;;1.98;0.40;;;19.90;51.50;;;;;;4992444;28;20056;-83
2022/01/04 04:28:06;;;;;;;1.15;0.40;;;21.30;52.20;;;;;;4993257;28;20128;-83
2022/01/04 04:30:31;;;;;;;0.60;0.30;;;20.00;51.60;;;;;;4992987;28;20136;-83
2022/01/04 04:32:57;;;;;;;1.52;0.47;;;20.00;51.60;;;;;;4992325;28;20044;-83
2022/01/04 04:35:23;;;;;;;1.38;0.40;;;19.90;51.50;;;;;;4993027;28;20049;-83
2022/01/04 04:37:48;;;;;;;1.05;0.30;;;20.00;51.60;;;;;;4992440;28;20041;-83
2022/01/04 04:40:14;;;;;;;1.00;0.30;;;19.90;51.50;;;;;;4993207;28;20568;-83
2022/01/04 04:42:39;;;;;;;0.65;0.30;;;19.90;51.60;;;;;;4992881;28;20084;-83
2022/01/04 04:45:06;;;;;;;1.08;0.30;;;20.70;52.00;;;;;;4992301;28;20073;-83
2022/01/04 04:47:32;;;;;;;1.45;0.45;;;19.90;51.60;;;;;;4986028;28;20593;-83
2022/01/04 04:49:57;;;;;;;1.05;0.38;;;19.90;51.60;;;;;;4992751;28;20050;-83
2022/01/04 04:52:23;;;;;;;0.85;0.30;;;19.90;51.60;;;;;;4992130;28;20050;-83
2022/01/04 04:54:48;;;;;;;0.70;0.32;;;19.90;51.60;;;;;;4994059;28;20073;-83
2022/01/04 04:57:14;;;;;;;1.27;0.32;;;19.90;51.60;;;;;;5032210;28;20516;-83
2022/01/04 04:59:40;;;;;;;1.13;0.40;;;19.90;51.60;;;;;;5031284;28;20056;-83
2022/01/04 05:02:07;;;;;;;0.77;0.30;;;19.90;51.60;;;;;;5031994;28;20131;-83
2022/01/04 05:04:33;;;;;;;1.70;0.47;;;19.90;51.70;;;;;;5032064;28;20386;-83
2022/01/04 05:06:59;;;;;;;0.80;0.35;;;19.90;51.60;;;;;;5027385;28;20059;-83
2022/01/04 05:09:25;;;;;;;2.35;0.60;;;19.90;51.60;;;;;;4992711;28;20434;-83
2022/01/04 05:11:50;;;;;;;2.33;0.40;;;19.80;51.60;;;;;;4992545;28;20049;-83
2022/01/04 05:14:18;;;;;;;0.45;0.22;;;19.90;51.70;;;;;;4998452;28;20104;-83
2022/01/04 05:16:44;;;;;;;0.68;0.35;;;19.80;51.60;;;;;;5011935;28;20547;-83
2022/01/04 05:19:10;;;;;;;1.05;0.40;;;19.80;51.60;;;;;;5012202;28;20099;-83
2022/01/04 05:21:35;;;;;;;1.10;0.35;;;19.80;51.60;;;;;;5011231;28;20051;-83
2022/01/04 05:24:01;;;;;;;0.95;0.40;;;19.90;51.70;;;;;;5012146;28;20054;-84
2022/01/04 05:26:26;;;;;;;0.90;0.47;;;19.90;51.70;;;;;;5011747;28;20580;-84
2022/01/04 05:28:52;;;;;;;0.93;0.30;;;19.80;51.70;;;;;;5007637;28;20065;-83
2022/01/04 05:31:17;;;;;;;1.10;0.30;;;19.90;51.80;;;;;;5007848;28;20123;-83
2022/01/04 05:33:43;;;;;;;1.23;0.30;;;19.90;51.80;;;;;;5025846;28;20038;-84
2022/01/04 05:36:08;;;;;;;0.95;0.25;;;19.90;51.90;;;;;;5010851;28;20045;-83
2022/01/04 05:38:34;;;;;;;1.25;0.35;;;19.90;51.90;;;;;;5011826;28;20056;-83
2022/01/04 05:40:59;;;;;;;1.35;0.30;;;19.90;51.90;;;;;;5010786;28;20045;-83
2022/01/04 05:43:25;;;;;;;0.90;0.20;;;19.90;51.90;;;;;;5011547;28;20457;-83
2022/01/04 05:45:51;;;;;;;0.70;0.25;;;20.00;52.00;;;;;;5011860;28;20046;-83
2022/01/04 05:48:20;;;;;;;0.55;0.25;;;20.00;52.00;;;;;;5011088;28;20053;-83
2022/01/04 05:50:47;;;;;;;0.90;0.30;;;20.00;52.00;;;;;;5011719;28;20053;-83
2022/01/04 05:53:12;;;;;;;1.13;0.28;;;20.00;51.90;;;;;;5011733;28;20049;-83
2022/01/04 05:55:38;;;;;;;0.63;0.30;;;20.00;51.90;;;;;;5009839;28;20520;-83
2022/01/04 05:58:03;;;;;;;1.48;0.30;;;20.10;51.90;;;;;;4994874;28;20060;-84
2022/01/04 06:00:29;;;;;;;1.00;0.30;;;20.10;51.90;;;;;;4991858;28;20050;-83
2022/01/04 06:02:55;;;;;;;1.00;0.30;;;20.10;51.90;;;;;;4996382;28;20059;-83
2022/01/04 06:05:20;;;;;;;0.68;0.30;;;20.10;51.90;;;;;;4991773;28;20489;-83
2022/01/04 06:07:46;;;;;;;0.95;0.20;;;20.10;51.90;;;;;;4991854;28;20089;-83
2022/01/04 06:10:13;;;;;;;0.60;0.40;;;20.10;51.80;;;;;;4991153;28;20046;-84
2022/01/04 06:15:06;;;;;;;0.60;0.30;;;20.90;52.30;;;;;;4991980;28;20061;-84
2022/01/04 06:17:34;;;;;;;0.70;0.30;;;20.20;51.90;;;;;;4990990;28;20076;-83
2022/01/04 06:20:00;;;;;;;0.57;0.40;;;20.20;51.90;;;;;;4991826;28;20490;-83
2022/01/04 06:22:26;;;;;;;0.52;0.40;;;20.20;51.90;;;;;;4990586;28;20092;-83
2022/01/04 06:24:52;;;;;;;1.30;0.50;;;20.70;52.10;;;;;;4990974;28;20041;-83
2022/01/04 06:27:17;;;;;;;0.40;0.10;;;20.20;51.90;;;;;;4991618;28;20050;-83
2022/01/04 06:29:43;;;;;;;1.05;0.47;;;20.20;51.90;;;;;;5008129;28;20064;-83
2022/01/04 06:32:09;;;;;;;1.00;0.30;;;20.20;51.80;;;;;;4985502;28;20049;-83
2022/01/04 06:34:34;;;;;;;0.60;0.20;;;20.20;51.80;;;;;;5013817;28;20042;-83
2022/01/04 06:37:00;;;;;;;0.50;0.30;;;20.30;51.90;;;;;;5010989;28;20429;-83
2022/01/04 06:39:26;;;;;;;0.45;0.20;;;20.30;51.90;;;;;;5009307;28;20087;-83
2022/01/04 06:41:51;;;;;;;0.65;0.30;;;20.30;51.80;;;;;;4982582;28;20057;-83
2022/01/04 06:44:17;;;;;;;0.40;0.20;;;20.30;51.80;;;;;;5026854;28;20061;-83
2022/01/04 06:46:45;;;;;;;0.98;0.30;;;20.30;51.80;;;;;;5014238;28;20493;-83
2022/01/04 06:49:12;;;;;;;1.05;0.20;;;20.40;51.90;;;;;;5022173;28;20136;-83
2022/01/04 06:51:39;;;;;;;0.60;0.20;;;20.40;51.90;;;;;;5022475;28;20057;-83
2022/01/04 06:54:05;;;;;;;0.68;0.22;;;20.40;51.90;;;;;;5030312;28;20045;-83
2022/01/04 06:56:31;;;;;;;0.60;0.20;;;20.40;51.90;;;;;;5047706;28;20049;-83
2022/01/04 06:58:56;;;;;;;0.93;0.20;;;20.40;51.80;;;;;;5028444;28;20107;-83
2022/01/04 07:01:22;;;;;;;0.68;0.20;;;20.40;51.80;;;;;;5030590;28;20255;-82
2022/01/04 07:03:47;;;;;;;0.88;0.30;;;20.50;51.90;;;;;;5031180;28;20050;-83
2022/01/04 07:06:13;;;;;;;1.55;0.20;;;20.50;51.80;;;;;;5028811;28;20050;-83
2022/01/04 07:08:39;;;;;;;1.25;0.40;;;20.50;51.80;;;;;;5018741;28;20049;-82
2022/01/04 07:11:05;;;;;;;0.88;0.30;;;20.50;51.80;;;;;;5014366;28;20072;-82
2022/01/04 07:13:30;;;;;;;0.85;0.30;;;20.50;51.80;;;;;;5013569;28;20049;-80
2022/01/04 07:15:56;;;;;;;1.13;0.40;;;20.50;51.70;;;;;;5031801;28;20063;-82
2022/01/04 07:18:21;;;;;;;0.95;0.30;;;20.50;51.70;;;;;;5013773;28;20404;-83
2022/01/04 07:20:47;;;;;;;0.85;0.20;;;20.50;51.70;;;;;;5013343;28;20116;-82
2022/01/04 07:23:12;;;;;;;1.20;0.30;;;20.60;51.70;;;;;;5014142;28;20037;-82
2022/01/04 07:25:38;;;;;;;1.42;0.20;;;20.60;51.70;;;;;;5015496;28;20042;-82
2022/01/04 07:28:04;;;;;;;0.40;0.20;;;20.60;51.70;;;;;;5013258;28;20050;-82
2022/01/04 07:30:29;;;;;;;1.55;0.30;;;20.60;51.70;;;;;;5013766;28;20037;-83
2022/01/04 07:32:56;;;;;;;0.70;0.30;;;20.60;51.60;;;;;;5013874;28;20050;-83
2022/01/04 07:35:21;;;;;;;0.77;0.28;;;20.60;51.60;;;;;;5013103;28;20129;-83
2022/01/04 07:37:47;;;;;;;0.75;0.10;;;22.40;52.50;;;;;;4998575;28;20144;-83
2022/01/04 07:40:12;;;;;;;0.88;0.30;;;20.60;51.60;;;;;;4997405;28;20042;-83
2022/01/04 07:42:38;;;;;;;0.90;0.30;;;20.60;51.50;;;;;;4992750;28;20042;-83
2022/01/04 07:45:04;;;;;;;1.05;0.30;;;20.70;51.60;;;;;;4993970;28;20045;-83
2022/01/04 07:47:30;;;;;;;0.50;0.20;;;20.60;51.50;;;;;;4994089;28;20441;-83
2022/01/04 07:49:55;;;;;;;0.70;0.30;;;20.60;51.50;;;;;;4997231;28;20046;-83
2022/01/04 07:52:24;;;;;;;1.17;0.30;;;20.60;51.50;;;;;;4999261;28;20068;-83
2022/01/04 07:54:50;;;;;;;0.75;0.20;;;20.60;51.50;;;;;;4993610;28;20129;-83
2022/01/04 07:57:15;;;;;;;0.68;0.30;;;20.60;51.40;;;;;;4991968;28;20168;-83
2022/01/04 07:59:41;;;;;;;0.75;0.25;;;20.60;51.40;;;;;;5026049;28;20133;-83
2022/01/04 08:02:06;;;;;;;0.73;0.22;;;20.80;51.60;;;;;;5028472;28;20088;-83
2022/01/04 08:04:33;;;;;;;0.98;0.35;;;20.70;51.50;;;;;;5029693;28;20054;-82
2022/01/04 08:06:59;;;;;;;0.93;0.40;;;20.70;51.40;;;;;;5030728;28;20051;-83
2022/01/04 08:09:28;;;;;;;1.05;0.40;;;20.60;51.40;;;;;;5013304;28;20033;-82
2022/01/04 08:11:54;;;;;;;1.35;0.22;;;20.70;51.40;;;;;;5011399;28;20061;-83
2022/01/04 08:14:20;;;;;;;5.05;2.15;;;20.60;51.40;;;;;;5029289;28;20444;-82
2022/01/04 08:16:45;;;;;;;6.13;3.33;;;20.60;51.30;;;;;;5011846;28;20184;-78
2022/01/04 08:19:11;;;;;;;3.95;1.92;;;20.60;51.10;;;;;;5013140;28;20045;-81
2022/01/04 08:21:36;;;;;;;3.65;1.63;;;20.60;51.10;;;;;;5013058;28;20060;-81
2022/01/04 08:24:02;;;;;;;2.88;1.55;;;21.70;51.70;;;;;;5012126;28;20045;-81
2022/01/04 08:26:28;;;;;;;2.70;1.40;;;20.50;51.10;;;;;;5012858;28;20041;-81
2022/01/04 08:28:54;;;;;;;3.67;1.42;;;20.50;51.10;;;;;;4824185;28;5001961;-81
2022/01/04 08:31:20;;;;;;;4.32;1.30;;;20.50;51.10;;;;;;5048387;28;20080;-82
2022/01/04 08:33:45;;;;;;;4.13;1.40;;;20.40;51.10;;;;;;5044880;28;20634;-83
2022/01/04 08:36:11;;;;;;;3.00;1.27;;;20.40;51.10;;;;;;5049287;28;20163;-82
2022/01/04 08:38:39;;;;;;;4.30;0.82;;;20.40;51.10;;;;;;5031722;28;20503;-82
2022/01/04 08:41:04;;;;;;;2.95;1.27;;;20.40;51.80;;;;;;5032449;28;20045;-83
2022/01/04 08:43:30;;;;;;;5.00;1.00;;;20.40;51.20;;;;;;5032047;28;20429;-83
2022/01/04 08:45:56;;;;;;;2.75;0.90;;;20.40;51.20;;;;;;5031563;28;20170;-82
2022/01/04 08:48:21;;;;;;;3.08;0.80;;;20.40;51.20;;;;;;5032143;28;20111;-83
2022/01/04 08:50:48;;;;;;;2.70;1.20;;;20.30;51.20;;;;;;5034156;28;20053;-83
2022/01/04 08:53:14;;;;;;;2.10;0.82;;;20.30;51.20;;;;;;5011695;28;20539;-82
2022/01/04 08:55:40;;;;;;;2.78;0.90;;;20.30;51.20;;;;;;5031724;28;20052;-82
2022/01/04 08:58:06;;;;;;;2.38;0.80;;;20.30;51.30;;;;;;5030758;28;20041;-82
2022/01/04 09:00:32;;;;;;;2.97;0.85;;;20.30;51.20;;;;;;5031720;28;20045;-82
2022/01/04 09:02:59;;;;;;;2.72;0.98;;;20.30;51.30;;;;;;5031088;28;20052;-82
2022/01/04 09:05:25;;;;;;;2.30;0.85;;;20.20;51.20;;;;;;5029560;28;20040;-82
2022/01/04 09:07:51;;;;;;;1.65;0.70;;;20.20;51.30;;;;;;5031626;28;20052;-82
2022/01/04 09:10:17;;;;;;;1.63;0.70;;;20.20;51.30;;;;;;5031690;28;20049;-82
2022/01/04 09:13:01;;;;;;;2.20;1.27;;;20.20;51.30;;;;;;5014901;28;20201;-82
2022/01/04 09:20:51;;;;;;;1.48;0.65;;;20.20;51.30;;;;;;5030397;28;20065;-83
2022/01/04 09:23:21;;;;;;;2.10;0.75;;;20.20;51.40;;;;;;5032093;28;20041;-84
2022/01/04 09:25:49;;;;;;;2.70;0.80;;;20.20;51.50;;;;;;2935785;28;10001113;-85
2022/01/04 09:28:15;;;;;;;2.58;0.90;;;20.20;51.50;;;;;;5031689;28;20041;-84
2022/01/04 09:30:41;;;;;;;1.98;0.80;;;20.20;51.50;;;;;;5026259;28;20481;-84
2022/01/04 09:33:07;;;;;;;2.83;1.10;;;20.20;51.50;;;;;;5013489;28;20052;-85
2022/01/04 09:35:36;;;;;;;2.75;0.77;;;20.20;51.50;;;;;;5035902;28;20041;-84
2022/01/04 09:38:09;;;;;;;1.60;0.80;;;20.20;51.40;;;;;;5030945;28;20098;-79
2022/01/04 09:40:35;;;;;;;1.80;0.68;;;20.30;51.50;;;;;;5013176;28;20041;-85
2022/01/04 09:43:03;;;;;;;2.45;0.95;;;20.20;51.40;;;;;;5047194;28;20059;-83
2022/01/04 09:45:29;;;;;;;2.72;1.00;;;20.30;51.50;;;;;;5030124;28;20151;-83
2022/01/04 09:47:54;;;;;;;2.25;1.00;;;20.30;51.40;;;;;;5028162;28;20548;-84
2022/01/04 09:50:20;;;;;;;2.17;1.00;;;20.30;51.50;;;;;;5030148;28;20053;-84
2022/01/04 09:52:47;;;;;;;2.47;1.00;;;20.30;51.40;;;;;;5029823;28;20499;-84
2022/01/04 09:55:13;;;;;;;2.90;1.05;;;20.30;51.40;;;;;;5016885;28;20135;-84
2022/01/04 09:57:39;;;;;;;2.60;0.85;;;20.30;51.40;;;;;;5009979;28;20053;-85
2022/01/04 10:00:06;;;;;;;2.83;0.90;;;20.30;51.40;;;;;;5019714;28;20131;-84
2022/01/04 10:02:31;;;;;;;3.17;0.90;;;20.30;51.40;;;;;;5023572;28;20056;-85
2022/01/04 10:05:25;;;;;;;2.28;0.88;;;20.30;51.40;;;;;;5011992;28;20041;-87
2022/01/04 10:08:05;;;;;;;6.53;1.90;;;20.30;51.40;;;;;;5003869;28;20054;-87
2022/01/04 10:10:31;;;;;;;4.95;1.60;;;21.30;52.20;;;;;;5031039;28;20412;-87
2022/01/04 10:13:01;;;;;;;4.75;1.48;;;20.30;51.80;;;;;;5021593;28;20056;-86
2022/01/04 10:15:37;;;;;;;5.25;1.60;;;20.30;51.90;;;;;;5013070;28;20100;-86
2022/01/04 10:18:04;;;;;;;4.45;1.38;;;20.20;52.00;;;;;;5011720;28;20057;-86
2022/01/04 10:20:29;;;;;;;6.07;1.80;;;20.20;52.10;;;;;;5002455;28;20115;-86
2022/01/04 10:22:55;;;;;;;2.83;1.10;;;20.20;52.20;;;;;;5011535;28;20049;-85
2022/01/04 10:25:21;;;;;;;2.42;1.00;;;20.20;52.30;;;;;;5000343;28;20386;-85
2022/01/04 10:27:48;;;;;;;2.95;1.48;;;20.20;52.40;;;;;;4994756;28;20090;-84
2022/01/04 10:30:26;;;;;;;3.53;1.55;;;20.20;52.50;;;;;;5046182;28;20045;-85
2022/01/04 10:33:22;;;;;;;2.92;1.05;;;20.20;52.50;;;;;;5006539;28;20045;-87
2022/01/04 10:35:49;;;;;;;3.70;0.93;;;20.20;52.60;;;;;;4994187;28;20054;-88
2022/01/04 10:38:33;;;;;;;4.32;1.25;;;20.20;52.70;;;;;;5011906;28;20120;-88
2022/01/04 10:41:01;;;;;;;2.05;0.90;;;20.10;52.80;;;;;;5012290;28;20049;-88
2022/01/04 10:43:31;;;;;;;3.85;0.88;;;20.20;52.80;;;;;;5040526;28;20045;-87
2022/01/04 10:45:58;;;;;;;3.53;0.95;;;20.20;52.80;;;;;;5009985;28;20053;-85
2022/01/04 10:48:26;;;;;;;3.15;0.70;;;20.20;52.90;;;;;;5044420;28;20512;-86
2022/01/04 10:50:57;;;;;;;3.17;0.80;;;20.20;53.00;;;;;;5012825;28;20088;-86
2022/01/04 10:53:30;;;;;;;3.10;0.80;;;20.20;52.90;;;;;;5012245;28;20444;-82
2022/01/04 10:56:01;;;;;;;3.13;0.80;;;20.20;53.00;;;;;;5003383;28;20057;-81
2022/01/04 10:58:34;;;;;;;3.55;0.70;;;20.20;52.90;;;;;;5012409;28;20057;-80
2022/01/04 11:01:02;;;;;;;2.65;0.60;;;20.30;53.00;;;;;;5013899;28;20045;-81
2022/01/04 11:03:32;;;;;;;3.55;0.80;;;20.30;53.00;;;;;;5009433;28;20064;-82
2022/01/04 11:06:03;;;;;;;4.32;0.70;;;20.30;53.00;;;;;;5043791;28;20489;-82
2022/01/04 11:08:29;;;;;;;2.30;0.60;;;20.40;52.90;;;;;;5017581;28;20072;-83
2022/01/04 11:10:55;;;;;;;2.38;0.65;;;20.40;52.90;;;;;;5018604;28;20046;-92
2022/01/04 11:13:21;;;;;;;2.67;0.50;;;20.40;52.90;;;;;;5018874;28;20052;-91
2022/01/04 11:16:15;;;;;;;1.80;0.60;;;20.40;52.80;;;;;;5016375;28;20160;-91
2022/01/04 11:18:41;;;;;;;1.13;0.40;;;20.70;52.80;;;;;;5015986;28;20052;-91
2022/01/04 11:21:13;;;;;;;1.25;0.50;;;20.40;53.70;;;;;;5027242;28;20049;-87
2022/01/04 11:23:39;;;;;;;1.38;0.50;;;20.60;52.80;;;;;;5034539;28;20057;-88
2022/01/04 11:26:11;;;;;;;1.50;0.40;;;20.10;52.40;;;;;;5017572;28;20373;-87
2022/01/04 11:28:43;;;;;;;0.95;0.40;;;20.80;52.80;;;;;;4990300;28;20053;-88
2022/01/04 11:31:19;;;;;;;1.58;0.43;;;20.50;52.40;;;;;;4991762;28;20097;-87
2022/01/04 11:34:06;;;;;;;2.08;0.70;;;20.50;52.30;;;;;;4973291;28;20571;-88
2022/01/04 11:36:39;;;;;;;2.80;0.50;;;20.50;52.20;;;;;;4994143;28;20080;-87
2022/01/04 11:39:41;;;;;;;0.93;0.45;;;20.60;52.20;;;;;;4991961;28;20592;-87
2022/01/04 11:42:08;;;;;;;1.73;0.60;;;20.60;52.20;;;;;;4961192;28;20498;-88
2022/01/04 11:44:35;;;;;;;1.13;0.40;;;20.60;52.10;;;;;;4993713;28;20421;-87
2022/01/04 11:47:06;;;;;;;1.48;0.40;;;20.50;52.00;;;;;;4992977;28;20124;-87
2022/01/04 11:49:34;;;;;;;2.85;0.40;;;20.50;52.00;;;;;;4994012;28;20081;-87
2022/01/04 11:52:00;;;;;;;0.75;0.30;;;20.50;52.00;;;;;;4994089;28;20060;-87
2022/01/04 11:54:27;;;;;;;2.40;0.60;;;20.50;52.00;;;;;;4993427;28;20142;-87
2022/01/04 11:56:58;;;;;;;1.70;0.43;;;20.50;52.00;;;;;;4989414;28;20049;-87
2022/01/04 11:59:31;;;;;;;2.00;0.45;;;20.50;52.00;;;;;;4986903;28;20053;-91
2022/01/04 12:01:57;;;;;;;1.40;0.40;;;20.50;51.90;;;;;;4992522;28;20123;-87
2022/01/04 12:04:51;;;;;;;1.40;0.50;;;20.50;51.90;;;;;;5008591;28;20044;-87
2022/01/04 12:07:39;;;;;;;0.50;0.35;;;22.00;52.70;;;;;;4993622;28;20054;-88
2022/01/04 12:10:19;;;;;;;1.02;0.40;;;20.60;52.00;;;;;;4815613;28;5087865;-91
2022/01/04 12:13:09;;;;;;;1.05;0.35;;;20.50;51.90;;;;;;4995223;28;20099;-91
2022/01/04 12:15:35;;;;;;;2.72;0.30;;;20.50;51.80;;;;;;4993990;28;20132;-86
2022/01/04 12:18:36;;;;;;;1.42;0.47;;;20.50;51.80;;;;;;4993341;28;20050;-87
2022/01/04 12:21:22;;;;;;;1.63;0.40;;;20.50;51.80;;;;;;4980067;28;20057;-88
2022/01/04 12:23:48;;;;;;;1.38;0.43;;;20.50;51.80;;;;;;4976500;28;20132;-84
2022/01/04 12:26:16;;;;;;;1.05;0.40;;;20.50;51.80;;;;;;4990291;28;20081;-88
2022/01/04 12:29:05;;;;;;;1.75;0.30;;;20.50;51.80;;;;;;4999840;28;20058;-88
2022/01/04 12:31:51;;;;;;;1.40;0.40;;;20.50;51.80;;;;;;4986106;28;20058;-88
2022/01/04 12:34:29;;;;;;;0.50;0.30;;;20.50;51.80;;;;;;5004570;28;20052;-90
2022/01/04 12:36:54;;;;;;;1.42;0.43;;;21.70;52.50;;;;;;5006565;28;20057;-90
2022/01/04 12:39:21;;;;;;;2.47;0.30;;;21.10;52.10;;;;;;5008338;28;20144;-89
2022/01/04 12:41:48;;;;;;;1.45;0.30;;;20.50;51.80;;;;;;5005500;28;20531;-88
2022/01/04 12:44:20;;;;;;;1.30;0.30;;;20.50;51.80;;;;;;5007769;28;20085;-88
2022/01/04 12:46:46;;;;;;;0.73;0.20;;;20.50;51.80;;;;;;5009064;28;20054;-87
2022/01/04 12:49:13;;;;;;;0.60;0.30;;;20.50;51.80;;;;;;5008190;28;20367;-87
2022/01/04 12:51:44;;;;;;;2.60;0.40;;;20.50;51.80;;;;;;5008368;28;20567;-87
2022/01/04 12:54:17;;;;;;;7.13;2.38;;;20.60;51.80;;;;;;5010706;28;20065;-85
2022/01/04 12:56:46;;;;;;;40.78;12.93;;;22.20;52.70;;;;;;5007944;28;20046;-86